L’AEROCLUB LOUDUNAIS ET L’ANEG PARTENAIRES DU TELETHON 2020

OFFREZ VOUS OU OFFREZ A VOS PROCHES

UN VOL DE DECOUVERTE EN

CHARIOT ASCENSIONNEL, EN AVION OU EN ULM

Un cadeau de Noël extraordinaire doublé d’une action envers le Téléthon

Information en heures locale pour LFDL
01 February 2023

Metar
LFBI 011030Z AUTO 30003KT 9999 OVC030 07/05 Q1033 NOSIG

Lever du soleil : 08:25

Coucher du soleil : 18:00

Actualité

Décès de Michel Ricotier

 Michel, né en 1947, a commencé à piloter à l’aéroclub Loudunais dès sa jeunesse dans les années 1960 avec Mr …

Newsletter Sign Up

Praesent libero sed cursus anted dapibus diam